<?xml version="1.0" encoding="UTF-8"?>
<gpx version="1.1" creator="https://www.youtrack.es" xsi:schemaLocation="http://www.topografix.com/GPX/1/1 http://www.topografix.com/GPX/1/1/gpx.xsd http://www.garmin.com/xmlschemas/GpxExtensions/v3 http://www.garmin.com/xmlschemas/GpxExtensionsv3.xsd http://www.garmin.com/xmlschemas/TrackPointExtension/v1 http://www.garmin.com/xmlschemas/TrackPointExtensionv1.xsd" xmlns:gpxtpx="http://www.garmin.com/xmlschemas/TrackPointExtension/v1" xmlns:gpxx="http://www.garmin.com/xmlschemas/GpxExtensions/v3" xmlns:xsi="http://www.w3.org/2001/XMLSchema-instance">
  <metadata>
    <link href="https://www.youtrack.es">
      <text>YouTrack.es</text>
    </link>
    <time>2026-05-10T17:53:15Z</time>
  </metadata>
  <trk>
    <src>https://www.youtrack.es</src>
    <link href="https://www.youtrack.es/ruta/16059-38--mama-roca-1">
      <text>YouTrack.es</text>
    </link>
    <trkseg>
      <trkpt lat="41.982564" lon="3.203512">
        <ele>0</ele>
        <time>2020-09-13T12:02:46.000Z</time>
      </trkpt>
      <trkpt lat="41.982554" lon="3.203696">
        <ele>0</ele>
        <time>2020-09-13T12:02:57.000Z</time>
      </trkpt>
      <trkpt lat="41.982579" lon="3.203943">
        <ele>0</ele>
        <time>2020-09-13T12:03:10.000Z</time>
      </trkpt>
      <trkpt lat="41.982667" lon="3.204165">
        <ele>0</ele>
        <time>2020-09-13T12:03:26.000Z</time>
      </trkpt>
      <trkpt lat="41.982775" lon="3.204382">
        <ele>0</ele>
        <time>2020-09-13T12:03:40.000Z</time>
      </trkpt>
      <trkpt lat="41.982874" lon="3.204586">
        <ele>0</ele>
        <time>2020-09-13T12:03:54.000Z</time>
      </trkpt>
      <trkpt lat="41.982731" lon="3.204744">
        <ele>0</ele>
        <time>2020-09-13T12:04:05.000Z</time>
      </trkpt>
      <trkpt lat="41.982562" lon="3.204826">
        <ele>0</ele>
        <time>2020-09-13T12:04:18.000Z</time>
      </trkpt>
      <trkpt lat="41.982432" lon="3.205014">
        <ele>0</ele>
        <time>2020-09-13T12:04:32.000Z</time>
      </trkpt>
      <trkpt lat="41.982492" lon="3.205251">
        <ele>0</ele>
        <time>2020-09-13T12:05:02.000Z</time>
      </trkpt>
      <trkpt lat="41.982491" lon="3.205496">
        <ele>0</ele>
        <time>2020-09-13T12:05:16.000Z</time>
      </trkpt>
      <trkpt lat="41.982555" lon="3.205734">
        <ele>0</ele>
        <time>2020-09-13T12:05:28.000Z</time>
      </trkpt>
      <trkpt lat="41.982384" lon="3.205843">
        <ele>0</ele>
        <time>2020-09-13T12:05:39.000Z</time>
      </trkpt>
      <trkpt lat="41.982209" lon="3.205945">
        <ele>0</ele>
        <time>2020-09-13T12:05:52.000Z</time>
      </trkpt>
      <trkpt lat="41.982039" lon="3.206029">
        <ele>0</ele>
        <time>2020-09-13T12:06:05.000Z</time>
      </trkpt>
      <trkpt lat="41.981868" lon="3.206132">
        <ele>0</ele>
        <time>2020-09-13T12:06:19.000Z</time>
      </trkpt>
      <trkpt lat="41.981698" lon="3.206237">
        <ele>0</ele>
        <time>2020-09-13T12:06:33.000Z</time>
      </trkpt>
      <trkpt lat="41.981535" lon="3.206343">
        <ele>0</ele>
        <time>2020-09-13T12:06:46.000Z</time>
      </trkpt>
      <trkpt lat="41.981367" lon="3.206452">
        <ele>0</ele>
        <time>2020-09-13T12:07:00.000Z</time>
      </trkpt>
      <trkpt lat="41.981193" lon="3.206561">
        <ele>0</ele>
        <time>2020-09-13T12:07:16.000Z</time>
      </trkpt>
      <trkpt lat="41.981055" lon="3.206737">
        <ele>0</ele>
        <time>2020-09-13T12:07:30.000Z</time>
      </trkpt>
      <trkpt lat="41.980896" lon="3.206869">
        <ele>0</ele>
        <time>2020-09-13T12:07:44.000Z</time>
      </trkpt>
      <trkpt lat="41.980727" lon="3.206995">
        <ele>0</ele>
        <time>2020-09-13T12:08:03.000Z</time>
      </trkpt>
      <trkpt lat="41.980547" lon="3.207022">
        <ele>0</ele>
        <time>2020-09-13T12:08:21.000Z</time>
      </trkpt>
      <trkpt lat="41.980385" lon="3.20716">
        <ele>0</ele>
        <time>2020-09-13T12:10:20.000Z</time>
      </trkpt>
      <trkpt lat="41.980201" lon="3.20722">
        <ele>0</ele>
        <time>2020-09-13T12:10:33.000Z</time>
      </trkpt>
      <trkpt lat="41.980028" lon="3.20734">
        <ele>0</ele>
        <time>2020-09-13T12:10:49.000Z</time>
      </trkpt>
      <trkpt lat="41.979923" lon="3.207537">
        <ele>0</ele>
        <time>2020-09-13T12:11:02.000Z</time>
      </trkpt>
      <trkpt lat="41.979788" lon="3.207714">
        <ele>0</ele>
        <time>2020-09-13T12:11:17.000Z</time>
      </trkpt>
      <trkpt lat="41.97968" lon="3.207918">
        <ele>0</ele>
        <time>2020-09-13T12:11:31.000Z</time>
      </trkpt>
      <trkpt lat="41.979538" lon="3.208082">
        <ele>0</ele>
        <time>2020-09-13T12:11:44.000Z</time>
      </trkpt>
      <trkpt lat="41.979391" lon="3.20823">
        <ele>0</ele>
        <time>2020-09-13T12:11:59.000Z</time>
      </trkpt>
      <trkpt lat="41.979262" lon="3.208408">
        <ele>0</ele>
        <time>2020-09-13T12:12:15.000Z</time>
      </trkpt>
      <trkpt lat="41.979133" lon="3.20858">
        <ele>0</ele>
        <time>2020-09-13T12:12:36.000Z</time>
      </trkpt>
      <trkpt lat="41.979005" lon="3.20876">
        <ele>0</ele>
        <time>2020-09-13T12:12:59.000Z</time>
      </trkpt>
      <trkpt lat="41.979082" lon="3.208991">
        <ele>0</ele>
        <time>2020-09-13T12:13:15.000Z</time>
      </trkpt>
      <trkpt lat="41.979118" lon="3.209237">
        <ele>0</ele>
        <time>2020-09-13T12:13:31.000Z</time>
      </trkpt>
      <trkpt lat="41.979052" lon="3.209004">
        <ele>0</ele>
        <time>2020-09-13T12:13:58.000Z</time>
      </trkpt>
      <trkpt lat="41.978997" lon="3.208773">
        <ele>0</ele>
        <time>2020-09-13T12:14:57.000Z</time>
      </trkpt>
      <trkpt lat="41.978819" lon="3.208839">
        <ele>0</ele>
        <time>2020-09-13T12:15:13.000Z</time>
      </trkpt>
      <trkpt lat="41.978996" lon="3.208903">
        <ele>0</ele>
        <time>2020-09-13T12:18:59.000Z</time>
      </trkpt>
      <trkpt lat="41.979053" lon="3.209138">
        <ele>0</ele>
        <time>2020-09-13T12:19:09.000Z</time>
      </trkpt>
      <trkpt lat="41.979055" lon="3.209383">
        <ele>0</ele>
        <time>2020-09-13T12:19:23.000Z</time>
      </trkpt>
      <trkpt lat="41.979062" lon="3.209632">
        <ele>0</ele>
        <time>2020-09-13T12:19:47.000Z</time>
      </trkpt>
      <trkpt lat="41.978835" lon="3.209816">
        <ele>0</ele>
        <time>2020-09-13T12:20:05.000Z</time>
      </trkpt>
      <trkpt lat="41.979051" lon="3.20983">
        <ele>0</ele>
        <time>2020-09-13T12:20:51.116Z</time>
      </trkpt>
      <trkpt lat="41.978875" lon="3.209935">
        <ele>0</ele>
        <time>2020-09-13T12:21:39.000Z</time>
      </trkpt>
      <trkpt lat="41.97876" lon="3.210147">
        <ele>0</ele>
        <time>2020-09-13T12:22:13.000Z</time>
      </trkpt>
      <trkpt lat="41.978579" lon="3.210163">
        <ele>0</ele>
        <time>2020-09-13T12:22:34.000Z</time>
      </trkpt>
      <trkpt lat="41.978398" lon="3.210103">
        <ele>0</ele>
        <time>2020-09-13T12:23:26.000Z</time>
      </trkpt>
      <trkpt lat="41.978245" lon="3.209832">
        <ele>0</ele>
        <time>2020-09-13T12:23:41.000Z</time>
      </trkpt>
      <trkpt lat="41.978035" lon="3.209757">
        <ele>0</ele>
        <time>2020-09-13T12:23:59.000Z</time>
      </trkpt>
      <trkpt lat="41.978238" lon="3.209739">
        <ele>0</ele>
        <time>2020-09-13T12:24:03.000Z</time>
      </trkpt>
      <trkpt lat="41.978251" lon="3.209997">
        <ele>0</ele>
        <time>2020-09-13T12:24:10.000Z</time>
      </trkpt>
      <trkpt lat="41.978144" lon="3.209796">
        <ele>0</ele>
        <time>2020-09-13T12:24:38.000Z</time>
      </trkpt>
      <trkpt lat="41.978313" lon="3.209883">
        <ele>0</ele>
        <time>2020-09-13T12:25:21.000Z</time>
      </trkpt>
      <trkpt lat="41.978473" lon="3.210015">
        <ele>0</ele>
        <time>2020-09-13T12:25:32.000Z</time>
      </trkpt>
      <trkpt lat="41.978694" lon="3.210216">
        <ele>0</ele>
        <time>2020-09-13T12:26:05.000Z</time>
      </trkpt>
      <trkpt lat="41.978532" lon="3.210066">
        <ele>0</ele>
        <time>2020-09-13T12:26:08.000Z</time>
      </trkpt>
      <trkpt lat="41.97836" lon="3.209943">
        <ele>0</ele>
        <time>2020-09-13T12:26:17.000Z</time>
      </trkpt>
      <trkpt lat="41.978194" lon="3.210124">
        <ele>0</ele>
        <time>2020-09-13T12:26:27.000Z</time>
      </trkpt>
      <trkpt lat="41.978127" lon="3.209888">
        <ele>0</ele>
        <time>2020-09-13T12:26:54.000Z</time>
      </trkpt>
      <trkpt lat="41.977949" lon="3.209955">
        <ele>0</ele>
        <time>2020-09-13T12:27:37.000Z</time>
      </trkpt>
      <trkpt lat="41.97779" lon="3.210088">
        <ele>0</ele>
        <time>2020-09-13T12:27:54.000Z</time>
      </trkpt>
      <trkpt lat="41.977702" lon="3.210303">
        <ele>0</ele>
        <time>2020-09-13T12:28:13.000Z</time>
      </trkpt>
      <trkpt lat="41.977558" lon="3.21045">
        <ele>0</ele>
        <time>2020-09-13T12:28:29.000Z</time>
      </trkpt>
      <trkpt lat="41.977499" lon="3.210678">
        <ele>0</ele>
        <time>2020-09-13T12:28:58.000Z</time>
      </trkpt>
      <trkpt lat="41.977555" lon="3.210909">
        <ele>0</ele>
        <time>2020-09-13T12:29:45.000Z</time>
      </trkpt>
      <trkpt lat="41.977701" lon="3.211182">
        <ele>0</ele>
        <time>2020-09-13T12:31:26.000Z</time>
      </trkpt>
      <trkpt lat="41.977478" lon="3.211176">
        <ele>0</ele>
        <time>2020-09-13T12:31:30.000Z</time>
      </trkpt>
      <trkpt lat="41.977338" lon="3.211024">
        <ele>0</ele>
        <time>2020-09-13T12:34:21.000Z</time>
      </trkpt>
      <trkpt lat="41.977232" lon="3.210826">
        <ele>0</ele>
        <time>2020-09-13T12:35:26.000Z</time>
      </trkpt>
      <trkpt lat="41.977242" lon="3.210821">
        <ele>0</ele>
        <time>2020-09-13T12:35:52.000Z</time>
      </trkpt>
      <trkpt lat="41.977239" lon="3.210863">
        <ele>18.1000003814697</ele>
        <time>2020-09-13T12:36:09.000Z</time>
      </trkpt>
      <trkpt lat="41.977254" lon="3.21088">
        <ele>18.4285676967686</ele>
        <time>2020-09-13T12:36:38.000Z</time>
      </trkpt>
      <trkpt lat="41.977268" lon="3.210906">
        <ele>20.1600020480262</ele>
        <time>2020-09-13T12:36:42.000Z</time>
      </trkpt>
      <trkpt lat="41.977274" lon="3.210932">
        <ele>26</ele>
        <time>2020-09-13T12:36:46.000Z</time>
      </trkpt>
      <trkpt lat="41.977283" lon="3.210957">
        <ele>26</ele>
        <time>2020-09-13T12:36:49.000Z</time>
      </trkpt>
      <trkpt lat="41.977283" lon="3.210988">
        <ele>20</ele>
        <time>2020-09-13T12:36:54.000Z</time>
      </trkpt>
      <trkpt lat="41.977282" lon="3.211015">
        <ele>18</ele>
        <time>2020-09-13T12:37:02.000Z</time>
      </trkpt>
      <trkpt lat="41.97729" lon="3.211038">
        <ele>17</ele>
        <time>2020-09-13T12:37:20.000Z</time>
      </trkpt>
      <trkpt lat="41.977296" lon="3.211061">
        <ele>17</ele>
        <time>2020-09-13T12:37:28.000Z</time>
      </trkpt>
      <trkpt lat="41.977281" lon="3.211047">
        <ele>13.8399979519738</ele>
        <time>2020-09-13T12:37:42.000Z</time>
      </trkpt>
      <trkpt lat="41.977267" lon="3.211065">
        <ele>17</ele>
        <time>2020-09-13T12:37:56.000Z</time>
      </trkpt>
      <trkpt lat="41.977254" lon="3.211086">
        <ele>17</ele>
        <time>2020-09-13T12:38:10.000Z</time>
      </trkpt>
      <trkpt lat="41.977237" lon="3.211097">
        <ele>14</ele>
        <time>2020-09-13T12:39:15.000Z</time>
      </trkpt>
      <trkpt lat="41.977233" lon="3.211133">
        <ele>14.4285751603255</ele>
        <time>2020-09-13T12:39:29.000Z</time>
      </trkpt>
      <trkpt lat="41.977253" lon="3.21113">
        <ele>12</ele>
        <time>2020-09-13T12:39:53.000Z</time>
      </trkpt>
      <trkpt lat="41.977273" lon="3.211128">
        <ele>11</ele>
        <time>2020-09-13T12:39:58.000Z</time>
      </trkpt>
      <trkpt lat="41.977275" lon="3.211155">
        <ele>9</ele>
        <time>2020-09-13T12:40:14.000Z</time>
      </trkpt>
      <trkpt lat="41.9773" lon="3.211165">
        <ele>4</ele>
        <time>2020-09-13T12:40:28.000Z</time>
      </trkpt>
      <trkpt lat="41.977325" lon="3.211171">
        <ele>5.48672987392531</ele>
        <time>2020-09-13T12:40:32.000Z</time>
      </trkpt>
      <trkpt lat="41.977339" lon="3.211155">
        <ele>5</ele>
        <time>2020-09-13T12:40:37.000Z</time>
      </trkpt>
      <trkpt lat="41.977359" lon="3.211164">
        <ele>6</ele>
        <time>2020-09-13T12:40:45.000Z</time>
      </trkpt>
      <trkpt lat="41.977369" lon="3.211162">
        <ele>5</ele>
        <time>2020-09-13T12:42:03.000Z</time>
      </trkpt>
      <trkpt lat="41.977369" lon="3.211162">
        <ele>5</ele>
        <time>2020-09-13T12:42:05.000Z</time>
      </trkpt>
      <trkpt lat="41.977189" lon="3.211205">
        <ele>5</ele>
        <time>2020-09-13T12:43:26.000Z</time>
      </trkpt>
      <trkpt lat="41.977132" lon="3.21089">
        <ele>5</ele>
        <time>2020-09-13T12:43:59.000Z</time>
      </trkpt>
      <trkpt lat="41.977238" lon="3.210691">
        <ele>5</ele>
        <time>2020-09-13T12:45:01.000Z</time>
      </trkpt>
      <trkpt lat="41.977432" lon="3.210717">
        <ele>5</ele>
        <time>2020-09-13T12:46:06.000Z</time>
      </trkpt>
      <trkpt lat="41.977527" lon="3.210925">
        <ele>5</ele>
        <time>2020-09-13T12:46:17.000Z</time>
      </trkpt>
      <trkpt lat="41.97757" lon="3.211201">
        <ele>5</ele>
        <time>2020-09-13T12:46:29.000Z</time>
      </trkpt>
      <trkpt lat="41.977309" lon="3.211316">
        <ele>5</ele>
        <time>2020-09-13T12:47:14.000Z</time>
      </trkpt>
      <trkpt lat="41.97717" lon="3.21114">
        <ele>5</ele>
        <time>2020-09-13T12:47:36.000Z</time>
      </trkpt>
      <trkpt lat="41.977209" lon="3.210874">
        <ele>5</ele>
        <time>2020-09-13T12:47:55.000Z</time>
      </trkpt>
      <trkpt lat="41.977262" lon="3.211112">
        <ele>5</ele>
        <time>2020-09-13T12:48:06.000Z</time>
      </trkpt>
      <trkpt lat="41.977084" lon="3.210731">
        <ele>5</ele>
        <time>2020-09-13T12:48:37.000Z</time>
      </trkpt>
      <trkpt lat="41.97724" lon="3.210611">
        <ele>5</ele>
        <time>2020-09-13T12:49:33.000Z</time>
      </trkpt>
      <trkpt lat="41.977396" lon="3.210459">
        <ele>5</ele>
        <time>2020-09-13T12:49:45.000Z</time>
      </trkpt>
      <trkpt lat="41.977511" lon="3.210265">
        <ele>5</ele>
        <time>2020-09-13T12:50:02.000Z</time>
      </trkpt>
      <trkpt lat="41.977645" lon="3.210085">
        <ele>5</ele>
        <time>2020-09-13T12:50:15.000Z</time>
      </trkpt>
      <trkpt lat="41.977794" lon="3.209944">
        <ele>5</ele>
        <time>2020-09-13T12:50:31.000Z</time>
      </trkpt>
      <trkpt lat="41.977942" lon="3.209796">
        <ele>5</ele>
        <time>2020-09-13T12:50:48.000Z</time>
      </trkpt>
      <trkpt lat="41.978117" lon="3.20974">
        <ele>5</ele>
        <time>2020-09-13T12:57:30.000Z</time>
      </trkpt>
      <trkpt lat="41.978103" lon="3.209797">
        <ele>5</ele>
        <time>2020-09-13T12:59:45.000Z</time>
      </trkpt>
      <trkpt lat="41.97807" lon="3.209741">
        <ele>0</ele>
        <time>2020-09-13T13:08:07.000Z</time>
      </trkpt>
      <trkpt lat="41.97819" lon="3.20994">
        <ele>0</ele>
        <time>2020-09-13T13:08:20.000Z</time>
      </trkpt>
      <trkpt lat="41.978242" lon="3.210194">
        <ele>0</ele>
        <time>2020-09-13T13:08:30.000Z</time>
      </trkpt>
      <trkpt lat="41.978016" lon="3.210509">
        <ele>0</ele>
        <time>2020-09-13T13:08:50.000Z</time>
      </trkpt>
      <trkpt lat="41.978059" lon="3.210215">
        <ele>0</ele>
        <time>2020-09-13T13:08:52.000Z</time>
      </trkpt>
      <trkpt lat="41.978236" lon="3.210269">
        <ele>0</ele>
        <time>2020-09-13T13:09:16.000Z</time>
      </trkpt>
      <trkpt lat="41.978115" lon="3.210452">
        <ele>0</ele>
        <time>2020-09-13T13:09:24.000Z</time>
      </trkpt>
      <trkpt lat="41.977979" lon="3.210646">
        <ele>0</ele>
        <time>2020-09-13T13:09:51.000Z</time>
      </trkpt>
      <trkpt lat="41.977859" lon="3.210861">
        <ele>0</ele>
        <time>2020-09-13T13:11:01.000Z</time>
      </trkpt>
      <trkpt lat="41.977732" lon="3.211035">
        <ele>0</ele>
        <time>2020-09-13T13:11:14.000Z</time>
      </trkpt>
      <trkpt lat="41.977563" lon="3.211164">
        <ele>0</ele>
        <time>2020-09-13T13:12:20.000Z</time>
      </trkpt>
      <trkpt lat="41.977241" lon="3.211417">
        <ele>0</ele>
        <time>2020-09-13T13:12:46.073Z</time>
      </trkpt>
      <trkpt lat="41.977415" lon="3.211255">
        <ele>0</ele>
        <time>2020-09-13T13:12:49.000Z</time>
      </trkpt>
      <trkpt lat="41.977493" lon="3.210853">
        <ele>0</ele>
        <time>2020-09-13T13:13:33.000Z</time>
      </trkpt>
      <trkpt lat="41.977306" lon="3.210974">
        <ele>0</ele>
        <time>2020-09-13T13:13:53.000Z</time>
      </trkpt>
      <trkpt lat="41.977069" lon="3.211124">
        <ele>0</ele>
        <time>2020-09-13T13:14:05.000Z</time>
      </trkpt>
      <trkpt lat="41.977084" lon="3.210874">
        <ele>0</ele>
        <time>2020-09-13T13:14:59.000Z</time>
      </trkpt>
      <trkpt lat="41.97717" lon="3.211181">
        <ele>0</ele>
        <time>2020-09-13T13:15:19.000Z</time>
      </trkpt>
      <trkpt lat="41.977079" lon="3.210945">
        <ele>0</ele>
        <time>2020-09-13T13:15:22.000Z</time>
      </trkpt>
      <trkpt lat="41.976994" lon="3.210731">
        <ele>0</ele>
        <time>2020-09-13T13:15:48.000Z</time>
      </trkpt>
      <trkpt lat="41.977182" lon="3.210656">
        <ele>0</ele>
        <time>2020-09-13T13:16:40.000Z</time>
      </trkpt>
      <trkpt lat="41.977343" lon="3.210538">
        <ele>0</ele>
        <time>2020-09-13T13:17:05.000Z</time>
      </trkpt>
      <trkpt lat="41.977459" lon="3.21035">
        <ele>0</ele>
        <time>2020-09-13T13:17:25.000Z</time>
      </trkpt>
      <trkpt lat="41.977596" lon="3.210172">
        <ele>0</ele>
        <time>2020-09-13T13:17:41.000Z</time>
      </trkpt>
      <trkpt lat="41.977748" lon="3.21001">
        <ele>0</ele>
        <time>2020-09-13T13:17:56.000Z</time>
      </trkpt>
      <trkpt lat="41.9779" lon="3.209882">
        <ele>0</ele>
        <time>2020-09-13T13:18:14.000Z</time>
      </trkpt>
      <trkpt lat="41.978064" lon="3.209762">
        <ele>0</ele>
        <time>2020-09-13T13:18:51.000Z</time>
      </trkpt>
      <trkpt lat="41.978234" lon="3.209854">
        <ele>0</ele>
        <time>2020-09-13T13:19:20.000Z</time>
      </trkpt>
      <trkpt lat="41.9784" lon="3.20998">
        <ele>0</ele>
        <time>2020-09-13T13:19:35.000Z</time>
      </trkpt>
      <trkpt lat="41.978582" lon="3.210028">
        <ele>0</ele>
        <time>2020-09-13T13:19:44.000Z</time>
      </trkpt>
      <trkpt lat="41.978437" lon="3.210614">
        <ele>0</ele>
        <time>2020-09-13T13:20:06.000Z</time>
      </trkpt>
      <trkpt lat="41.978394" lon="3.210219">
        <ele>0</ele>
        <time>2020-09-13T13:20:08.000Z</time>
      </trkpt>
      <trkpt lat="41.978144" lon="3.210131">
        <ele>0</ele>
        <time>2020-09-13T13:20:11.000Z</time>
      </trkpt>
      <trkpt lat="41.978231" lon="3.209828">
        <ele>0</ele>
        <time>2020-09-13T13:20:15.000Z</time>
      </trkpt>
      <trkpt lat="41.978053" lon="3.209789">
        <ele>0</ele>
        <time>2020-09-13T13:21:28.000Z</time>
      </trkpt>
      <trkpt lat="41.978212" lon="3.209903">
        <ele>0</ele>
        <time>2020-09-13T13:25:54.000Z</time>
      </trkpt>
      <trkpt lat="41.978394" lon="3.209975">
        <ele>0</ele>
        <time>2020-09-13T13:26:11.000Z</time>
      </trkpt>
      <trkpt lat="41.978578" lon="3.210034">
        <ele>0</ele>
        <time>2020-09-13T13:26:28.000Z</time>
      </trkpt>
      <trkpt lat="41.978575" lon="3.209785">
        <ele>0</ele>
        <time>2020-09-13T13:26:52.000Z</time>
      </trkpt>
      <trkpt lat="41.978629" lon="3.209554">
        <ele>0</ele>
        <time>2020-09-13T13:27:07.000Z</time>
      </trkpt>
      <trkpt lat="41.978675" lon="3.209302">
        <ele>0</ele>
        <time>2020-09-13T13:27:24.000Z</time>
      </trkpt>
      <trkpt lat="41.978663" lon="3.209058">
        <ele>0</ele>
        <time>2020-09-13T13:27:44.000Z</time>
      </trkpt>
      <trkpt lat="41.978797" lon="3.208885">
        <ele>0</ele>
        <time>2020-09-13T13:28:37.000Z</time>
      </trkpt>
      <trkpt lat="41.978948" lon="3.208723">
        <ele>0</ele>
        <time>2020-09-13T13:28:58.000Z</time>
      </trkpt>
      <trkpt lat="41.979071" lon="3.208531">
        <ele>0</ele>
        <time>2020-09-13T13:29:13.000Z</time>
      </trkpt>
      <trkpt lat="41.979207" lon="3.20837">
        <ele>0</ele>
        <time>2020-09-13T13:29:29.000Z</time>
      </trkpt>
      <trkpt lat="41.979352" lon="3.208216">
        <ele>0</ele>
        <time>2020-09-13T13:29:49.000Z</time>
      </trkpt>
      <trkpt lat="41.979492" lon="3.208057">
        <ele>0</ele>
        <time>2020-09-13T13:30:04.000Z</time>
      </trkpt>
      <trkpt lat="41.979638" lon="3.207903">
        <ele>0</ele>
        <time>2020-09-13T13:30:18.000Z</time>
      </trkpt>
      <trkpt lat="41.97977" lon="3.207724">
        <ele>0</ele>
        <time>2020-09-13T13:30:32.000Z</time>
      </trkpt>
      <trkpt lat="41.979896" lon="3.207536">
        <ele>0</ele>
        <time>2020-09-13T13:32:32.000Z</time>
      </trkpt>
      <trkpt lat="41.980012" lon="3.20735">
        <ele>0</ele>
        <time>2020-09-13T13:32:44.000Z</time>
      </trkpt>
      <trkpt lat="41.980134" lon="3.207171">
        <ele>0</ele>
        <time>2020-09-13T13:32:55.000Z</time>
      </trkpt>
      <trkpt lat="41.980308" lon="3.20708">
        <ele>0</ele>
        <time>2020-09-13T13:33:13.000Z</time>
      </trkpt>
      <trkpt lat="41.980494" lon="3.207046">
        <ele>0</ele>
        <time>2020-09-13T13:33:29.000Z</time>
      </trkpt>
      <trkpt lat="41.980501" lon="3.207034">
        <ele>0</ele>
        <time>2020-09-13T13:33:30.000Z</time>
      </trkpt>
    </trkseg>
  </trk>
</gpx>
